sensor_id;sensor_type;location;lat;lon;timestamp;pressure;altitude;pressure_sealevel;temperature;humidity
17936;BME280;9093;52.062;4.508;2022-07-29T00:01:48;102096.06;;;18.71;54.69
17936;BME280;9093;52.062;4.508;2022-07-29T00:04:29;102092.59;;;18.69;54.80
17936;BME280;9093;52.062;4.508;2022-07-29T00:07:09;102093.47;;;18.70;54.87
17936;BME280;9093;52.062;4.508;2022-07-29T00:09:50;102092.69;;;18.68;54.83
17936;BME280;9093;52.062;4.508;2022-07-29T00:12:30;102093.88;;;18.64;55.00
17936;BME280;9093;52.062;4.508;2022-07-29T00:15:11;102091.16;;;18.64;55.05
17936;BME280;9093;52.062;4.508;2022-07-29T00:17:51;102092.13;;;18.63;55.13
17936;BME280;9093;52.062;4.508;2022-07-29T00:20:31;102086.72;;;18.63;55.11
17936;BME280;9093;52.062;4.508;2022-07-29T00:23:11;102086.81;;;18.61;54.95
17936;BME280;9093;52.062;4.508;2022-07-29T00:25:52;102081.50;;;18.60;55.05
17936;BME280;9093;52.062;4.508;2022-07-29T00:28:32;102088.00;;;18.57;55.25
17936;BME280;9093;52.062;4.508;2022-07-29T00:31:12;102082.69;;;18.56;55.15
17936;BME280;9093;52.062;4.508;2022-07-29T00:33:53;102080.16;;;18.53;55.39
17936;BME280;9093;52.062;4.508;2022-07-29T00:36:33;102078.44;;;18.52;55.34
17936;BME280;9093;52.062;4.508;2022-07-29T00:39:14;102081.34;;;18.48;55.40
17936;BME280;9093;52.062;4.508;2022-07-29T00:41:54;102074.97;;;18.49;55.51
17936;BME280;9093;52.062;4.508;2022-07-29T00:44:39;102076.16;;;18.45;55.39
17936;BME280;9093;52.062;4.508;2022-07-29T00:47:19;102077.13;;;18.44;55.39
17936;BME280;9093;52.062;4.508;2022-07-29T00:49:59;102077.13;;;18.44;55.46
17936;BME280;9093;52.062;4.508;2022-07-29T00:52:42;102073.63;;;18.42;55.51
17936;BME280;9093;52.062;4.508;2022-07-29T00:55:22;102065.44;;;18.44;55.53
17936;BME280;9093;52.062;4.508;2022-07-29T00:58:03;102063.69;;;18.43;55.30
17936;BME280;9093;52.062;4.508;2022-07-29T01:00:43;102064.75;;;18.40;55.50
17936;BME280;9093;52.062;4.508;2022-07-29T01:03:24;102068.47;;;18.39;55.53
17936;BME280;9093;52.062;4.508;2022-07-29T01:06:04;102060.44;;;18.38;55.64
17936;BME280;9093;52.062;4.508;2022-07-29T01:08:46;102057.91;;;18.35;55.84
17936;BME280;9093;52.062;4.508;2022-07-29T01:11:27;102068.88;;;18.33;55.72
17936;BME280;9093;52.062;4.508;2022-07-29T01:14:08;102072.53;;;18.32;55.76
17936;BME280;9093;52.062;4.508;2022-07-29T01:17:02;102063.75;;;18.29;55.89
17936;BME280;9093;52.062;4.508;2022-07-29T01:20:00;102054.75;;;18.28;55.96
17936;BME280;9093;52.062;4.508;2022-07-29T01:29:06;102066.66;;;18.26;55.88
17936;BME280;9093;52.062;4.508;2022-07-29T01:31:54;102052.38;;;18.24;56.10
17936;BME280;9093;52.062;4.508;2022-07-29T01:34:39;102056.91;;;18.23;56.21
17936;BME280;9093;52.062;4.508;2022-07-29T01:37:24;102057.88;;;18.22;56.27
17936;BME280;9093;52.062;4.508;2022-07-29T01:40:13;102047.19;;;18.21;56.22
17936;BME280;9093;52.062;4.508;2022-07-29T01:43:05;102048.25;;;18.18;56.31
17936;BME280;9093;52.062;4.508;2022-07-29T01:45:51;102050.16;;;18.16;56.33
17936;BME280;9093;52.062;4.508;2022-07-29T01:48:40;102053.84;;;18.15;56.37
17936;BME280;9093;52.062;4.508;2022-07-29T01:51:31;102047.59;;;18.15;56.20
17936;BME280;9093;52.062;4.508;2022-07-29T01:54:20;102047.59;;;18.15;56.36
17936;BME280;9093;52.062;4.508;2022-07-29T01:57:07;102035.91;;;18.14;56.40
17936;BME280;9093;52.062;4.508;2022-07-29T01:59:49;102031.47;;;18.13;56.43
17936;BME280;9093;52.062;4.508;2022-07-29T02:02:32;102031.56;;;18.12;56.54
17936;BME280;9093;52.062;4.508;2022-07-29T02:05:17;102028.97;;;18.10;56.54
17936;BME280;9093;52.062;4.508;2022-07-29T02:08:00;102032.63;;;18.09;56.58
17936;BME280;9093;52.062;4.508;2022-07-29T02:10:42;102031.09;;;18.05;56.62
17936;BME280;9093;52.062;4.508;2022-07-29T02:13:24;102030.25;;;18.04;56.72
17936;BME280;9093;52.062;4.508;2022-07-29T02:16:06;102025.78;;;18.03;56.79
17936;BME280;9093;52.062;4.508;2022-07-29T02:18:51;102024.19;;;18.01;56.97
17936;BME280;9093;52.062;4.508;2022-07-29T02:21:33;102026.97;;;17.99;56.88
17936;BME280;9093;52.062;4.508;2022-07-29T02:24:15;102026.09;;;17.99;56.89
17936;BME280;9093;52.062;4.508;2022-07-29T02:26:59;102024.38;;;17.98;57.04
17936;BME280;9093;52.062;4.508;2022-07-29T02:29:41;102025.34;;;17.97;57.17
17936;BME280;9093;52.062;4.508;2022-07-29T02:32:24;102022.75;;;17.95;57.03
17936;BME280;9093;52.062;4.508;2022-07-29T02:35:08;102021.88;;;17.95;56.96
17936;BME280;9093;52.062;4.508;2022-07-29T02:37:48;102021.28;;;17.90;56.68
17936;BME280;9093;52.062;4.508;2022-07-29T02:40:50;102030.19;;;17.92;57.15
17936;BME280;9093;52.062;4.508;2022-07-29T02:43:32;102030.41;;;17.89;57.12
17936;BME280;9093;52.062;4.508;2022-07-29T02:46:20;102021.59;;;17.85;57.16
17936;BME280;9093;52.062;4.508;2022-07-29T02:52:08;102023.44;;;17.85;57.25
17936;BME280;9093;52.062;4.508;2022-07-29T02:54:58;102019.88;;;17.84;57.16
17936;BME280;9093;52.062;4.508;2022-07-29T02:57:45;102026.22;;;17.83;57.36
17936;BME280;9093;52.062;4.508;2022-07-29T03:00:28;102022.56;;;17.84;57.32
17936;BME280;9093;52.062;4.508;2022-07-29T03:03:13;102016.50;;;17.81;57.32
17936;BME280;9093;52.062;4.508;2022-07-29T03:05:55;102023.84;;;17.79;57.26
17936;BME280;9093;52.062;4.508;2022-07-29T03:08:36;102011.41;;;17.76;57.42
17936;BME280;9093;52.062;4.508;2022-07-29T03:11:17;102009.78;;;17.74;57.48
17936;BME280;9093;52.062;4.508;2022-07-29T03:13:58;102008.03;;;17.73;57.40
17936;BME280;9093;52.062;4.508;2022-07-29T03:16:39;102009.00;;;17.72;57.51
17936;BME280;9093;52.062;4.508;2022-07-29T03:19:19;102008.25;;;17.70;57.61
17936;BME280;9093;52.062;4.508;2022-07-29T03:22:00;102005.56;;;17.70;57.62
17936;BME280;9093;52.062;4.508;2022-07-29T03:24:40;102009.22;;;17.68;57.65
17936;BME280;9093;52.062;4.508;2022-07-29T03:27:21;102006.69;;;17.65;57.69
17936;BME280;9093;52.062;4.508;2022-07-29T03:30:01;102010.34;;;17.64;57.66
17936;BME280;9093;52.062;4.508;2022-07-29T03:32:41;102001.50;;;17.62;57.77
17936;BME280;9093;52.062;4.508;2022-07-29T03:35:22;102001.66;;;17.59;57.74
17936;BME280;9093;52.062;4.508;2022-07-29T03:38:02;102008.03;;;17.58;57.72
17936;BME280;9093;52.062;4.508;2022-07-29T03:40:46;102003.63;;;17.57;57.81
17936;BME280;9093;52.062;4.508;2022-07-29T03:43:30;102007.28;;;17.56;57.88
17936;BME280;9093;52.062;4.508;2022-07-29T03:46:13;101998.41;;;17.54;57.79
17936;BME280;9093;52.062;4.508;2022-07-29T03:48:58;102000.13;;;17.55;58.01
17936;BME280;9093;52.062;4.508;2022-07-29T03:51:40;102002.94;;;17.54;57.92
17936;BME280;9093;52.062;4.508;2022-07-29T03:54:20;102007.38;;;17.55;57.91
17936;BME280;9093;52.062;4.508;2022-07-29T03:57:01;102006.59;;;17.53;57.95
17936;BME280;9093;52.062;4.508;2022-07-29T03:59:42;102006.72;;;17.51;57.95
17936;BME280;9093;52.062;4.508;2022-07-29T04:02:24;102006.72;;;17.51;58.00
17936;BME280;9093;52.062;4.508;2022-07-29T04:05:11;102001.41;;;17.50;58.07
17936;BME280;9093;52.062;4.508;2022-07-29T04:07:52;102007.69;;;17.50;58.06
17936;BME280;9093;52.062;4.508;2022-07-29T04:10:32;102004.19;;;17.48;58.09
17936;BME280;9093;52.062;4.508;2022-07-29T04:13:12;102004.19;;;17.48;58.09
17936;BME280;9093;52.062;4.508;2022-07-29T04:15:53;102003.31;;;17.48;58.26
17936;BME280;9093;52.062;4.508;2022-07-29T04:18:33;102009.59;;;17.48;58.20
17936;BME280;9093;52.062;4.508;2022-07-29T04:21:13;102006.13;;;17.46;58.21
17936;BME280;9093;52.062;4.508;2022-07-29T04:23:54;102005.25;;;17.46;58.17
17936;BME280;9093;52.062;4.508;2022-07-29T04:26:34;102006.13;;;17.46;58.19
17936;BME280;9093;52.062;4.508;2022-07-29T04:29:15;102003.41;;;17.46;58.15
17936;BME280;9093;52.062;4.508;2022-07-29T04:31:55;101997.16;;;17.46;58.08
17936;BME280;9093;52.062;4.508;2022-07-29T04:34:35;102000.72;;;17.46;58.36
17936;BME280;9093;52.062;4.508;2022-07-29T04:37:16;101998.00;;;17.46;58.36
17936;BME280;9093;52.062;4.508;2022-07-29T04:39:56;101999.84;;;17.46;58.31
17936;BME280;9093;52.062;4.508;2022-07-29T04:42:36;102003.41;;;17.46;58.17
17936;BME280;9093;52.062;4.508;2022-07-29T04:45:16;102005.38;;;17.44;58.25
17936;BME280;9093;52.062;4.508;2022-07-29T04:47:57;102007.19;;;17.44;58.46
17936;BME280;9093;52.062;4.508;2022-07-29T04:50:38;102000.94;;;17.43;58.20
17936;BME280;9093;52.062;4.508;2022-07-29T04:53:19;101999.19;;;17.42;58.51
17936;BME280;9093;52.062;4.508;2022-07-29T04:55:59;101988.38;;;17.42;58.32
17936;BME280;9093;52.062;4.508;2022-07-29T04:58:40;101997.66;;;17.38;58.37
17936;BME280;9093;52.062;4.508;2022-07-29T05:01:20;101999.38;;;17.39;58.41
17936;BME280;9093;52.062;4.508;2022-07-29T05:04:00;101999.38;;;17.39;58.57
17936;BME280;9093;52.062;4.508;2022-07-29T05:06:40;101997.75;;;17.37;58.55
17936;BME280;9093;52.062;4.508;2022-07-29T05:09:21;102003.06;;;17.38;58.42
17936;BME280;9093;52.062;4.508;2022-07-29T05:12:01;102013.88;;;17.38;58.52
17936;BME280;9093;52.062;4.508;2022-07-29T05:14:41;102004.13;;;17.36;58.64
17936;BME280;9093;52.062;4.508;2022-07-29T05:17:22;102004.97;;;17.36;58.59
17936;BME280;9093;52.062;4.508;2022-07-29T05:20:02;102005.84;;;17.37;58.69
17936;BME280;9093;52.062;4.508;2022-07-29T05:22:44;102004.97;;;17.36;58.71
17936;BME280;9093;52.062;4.508;2022-07-29T05:25:25;102004.78;;;17.39;58.69
17936;BME280;9093;52.062;4.508;2022-07-29T05:28:06;102012.59;;;17.44;58.61
17936;BME280;9093;52.062;4.508;2022-07-29T05:30:46;102011.44;;;17.48;58.63
17936;BME280;9093;52.062;4.508;2022-07-29T05:33:28;102013.06;;;17.50;58.65
17936;BME280;9093;52.062;4.508;2022-07-29T05:36:08;102019.03;;;17.55;58.50
17936;BME280;9093;52.062;4.508;2022-07-29T05:38:48;102025.03;;;17.60;58.59
17936;BME280;9093;52.062;4.508;2022-07-29T05:41:32;102022.91;;;17.65;58.56
17936;BME280;9093;52.062;4.508;2022-07-29T05:44:12;102026.38;;;17.67;58.47
17936;BME280;9093;52.062;4.508;2022-07-29T05:46:53;102019.94;;;17.70;58.31
17936;BME280;9093;52.062;4.508;2022-07-29T05:49:34;102025.81;;;17.77;58.56
17936;BME280;9093;52.062;4.508;2022-07-29T05:52:14;102029.06;;;17.82;58.54
17936;BME280;9093;52.062;4.508;2022-07-29T05:54:54;102026.91;;;17.87;58.67
17936;BME280;9093;52.062;4.508;2022-07-29T05:57:34;102027.47;;;17.92;58.59
17936;BME280;9093;52.062;4.508;2022-07-29T06:00:15;102026.28;;;17.96;58.53
17936;BME280;9093;52.062;4.508;2022-07-29T06:02:55;102017.03;;;18.00;58.54
17936;BME280;9093;52.062;4.508;2022-07-29T06:05:36;102023.97;;;18.04;58.81
17936;BME280;9093;52.062;4.508;2022-07-29T06:08:17;102015.44;;;18.10;58.37
17936;BME280;9093;52.062;4.508;2022-07-29T06:10:57;102035.78;;;18.16;58.42
17936;BME280;9093;52.062;4.508;2022-07-29T06:13:37;102030.09;;;18.20;58.51
17936;BME280;9093;52.062;4.508;2022-07-29T06:16:17;102026.22;;;18.24;58.58
17936;BME280;9093;52.062;4.508;2022-07-29T06:18:58;102031.19;;;18.30;58.48
17936;BME280;9093;52.062;4.508;2022-07-29T06:21:46;102032.72;;;18.34;58.38
17936;BME280;9093;52.062;4.508;2022-07-29T06:24:26;102026.03;;;18.40;58.50
17936;BME280;9093;52.062;4.508;2022-07-29T06:27:07;102029.41;;;18.43;58.39
17936;BME280;9093;52.062;4.508;2022-07-29T06:29:47;102030.19;;;18.45;58.25
17936;BME280;9093;52.062;4.508;2022-07-29T06:32:27;102034.41;;;18.49;58.52
17936;BME280;9093;52.062;4.508;2022-07-29T06:35:08;102029.53;;;18.55;58.42
17936;BME280;9093;52.062;4.508;2022-07-29T06:37:48;102035.53;;;18.60;58.44
17936;BME280;9093;52.062;4.508;2022-07-29T06:40:29;102041.50;;;18.65;58.30
17936;BME280;9093;52.062;4.508;2022-07-29T06:43:38;102041.97;;;18.71;58.24
17936;BME280;9093;52.062;4.508;2022-07-29T06:46:21;102044.34;;;18.76;58.20
17936;BME280;9093;52.062;4.508;2022-07-29T06:49:02;102044.97;;;18.79;58.23
17936;BME280;9093;52.062;4.508;2022-07-29T06:51:42;102040.34;;;18.81;58.31
17936;BME280;9093;52.062;4.508;2022-07-29T06:54:22;102041.09;;;18.83;58.22
17936;BME280;9093;52.062;4.508;2022-07-29T06:57:03;102044.44;;;18.87;58.33
17936;BME280;9093;52.062;4.508;2022-07-29T06:59:43;102052.38;;;18.90;58.10
17936;BME280;9093;52.062;4.508;2022-07-29T07:02:23;102053.88;;;18.94;58.36
17936;BME280;9093;52.062;4.508;2022-07-29T07:05:04;102056.34;;;18.97;58.25
17936;BME280;9093;52.062;4.508;2022-07-29T07:07:45;102055.19;;;19.01;58.07
17936;BME280;9093;52.062;4.508;2022-07-29T07:10:25;102051.28;;;19.05;58.64
17936;BME280;9093;52.062;4.508;2022-07-29T07:13:06;102056.50;;;19.08;58.06
17936;BME280;9093;52.062;4.508;2022-07-29T07:15:46;102058.00;;;19.12;58.36
17936;BME280;9093;52.062;4.508;2022-07-29T07:18:28;102059.50;;;19.16;58.01
17936;BME280;9093;52.062;4.508;2022-07-29T07:21:08;102064.72;;;19.19;58.25
17936;BME280;9093;52.062;4.508;2022-07-29T07:23:49;102058.09;;;19.23;58.21
17936;BME280;9093;52.062;4.508;2022-07-29T07:26:29;102069.69;;;19.25;58.24
17936;BME280;9093;52.062;4.508;2022-07-29T07:29:10;102064.06;;;19.28;58.20
17936;BME280;9093;52.062;4.508;2022-07-29T07:31:50;102064.06;;;19.28;58.21
17936;BME280;9093;52.062;4.508;2022-07-29T07:34:31;102067.75;;;19.27;58.23
17936;BME280;9093;52.062;4.508;2022-07-29T07:37:11;102066.03;;;19.26;58.34
17936;BME280;9093;52.062;4.508;2022-07-29T07:39:52;102062.44;;;19.26;58.18
17936;BME280;9093;52.062;4.508;2022-07-29T07:42:32;102064.28;;;19.25;58.38
17936;BME280;9093;52.062;4.508;2022-07-29T07:45:13;102066.13;;;19.25;58.39
17936;BME280;9093;52.062;4.508;2022-07-29T07:47:53;102066.22;;;19.23;58.21
17936;BME280;9093;52.062;4.508;2022-07-29T07:50:33;102078.78;;;19.24;58.41
17936;BME280;9093;52.062;4.508;2022-07-29T07:53:14;102068.94;;;19.23;58.48
17936;BME280;9093;52.062;4.508;2022-07-29T07:55:54;102072.41;;;19.25;58.44
17936;BME280;9093;52.062;4.508;2022-07-29T07:58:34;102073.19;;;19.27;58.59
17936;BME280;9093;52.062;4.508;2022-07-29T08:01:15;102076.63;;;19.29;58.44
17936;BME280;9093;52.062;4.508;2022-07-29T08:03:58;102064.63;;;19.34;58.46
17936;BME280;9093;52.062;4.508;2022-07-29T08:06:39;102074.13;;;19.39;58.14
17936;BME280;9093;52.062;4.508;2022-07-29T08:09:20;102070.13;;;19.45;58.42
17936;BME280;9093;52.062;4.508;2022-07-29T08:12:00;102064.31;;;19.51;58.49
17936;BME280;9093;52.062;4.508;2022-07-29T08:14:43;102053.03;;;19.57;58.54
17936;BME280;9093;52.062;4.508;2022-07-29T08:17:24;102058.00;;;19.63;58.48
17936;BME280;9093;52.062;4.508;2022-07-29T08:20:04;102062.00;;;19.70;58.37
17936;BME280;9093;52.062;4.508;2022-07-29T08:22:45;102054.50;;;19.74;58.52
17936;BME280;9093;52.062;4.508;2022-07-29T08:25:25;102059.47;;;19.80;58.43
17936;BME280;9093;52.062;4.508;2022-07-29T08:28:05;102062.59;;;19.86;58.68
17936;BME280;9093;52.062;4.508;2022-07-29T08:30:46;102058.44;;;19.93;58.39
17936;BME280;9093;52.062;4.508;2022-07-29T08:33:26;102061.81;;;19.97;58.46
17936;BME280;9093;52.062;4.508;2022-07-29T08:36:06;102056.16;;;20.00;58.60
17936;BME280;9093;52.062;4.508;2022-07-29T08:38:47;102061.34;;;20.03;58.41
17936;BME280;9093;52.062;4.508;2022-07-29T08:41:29;102072.81;;;20.06;58.34
17936;BME280;9093;52.062;4.508;2022-07-29T08:44:09;102073.69;;;20.07;58.64
17936;BME280;9093;52.062;4.508;2022-07-29T08:46:50;102068.94;;;20.11;58.48
17936;BME280;9093;52.062;4.508;2022-07-29T08:49:32;102078.66;;;20.13;58.50
17936;BME280;9093;52.062;4.508;2022-07-29T08:52:13;102069.31;;;20.17;58.38
17936;BME280;9093;52.062;4.508;2022-07-29T08:54:55;102072.78;;;20.19;58.22
17936;BME280;9093;52.062;4.508;2022-07-29T08:57:35;102073.28;;;20.24;58.50
17936;BME280;9093;52.062;4.508;2022-07-29T09:00:17;102065.94;;;20.26;58.42
17936;BME280;9093;52.062;4.508;2022-07-29T09:02:58;102072.72;;;20.32;58.47
17936;BME280;9093;52.062;4.508;2022-07-29T09:05:41;102066.25;;;20.34;58.13
17936;BME280;9093;52.062;4.508;2022-07-29T09:08:22;102074.50;;;20.33;58.40
17936;BME280;9093;52.062;4.508;2022-07-29T09:11:03;102078.38;;;20.41;58.16
17936;BME280;9093;52.062;4.508;2022-07-29T09:13:43;102068.41;;;20.42;58.21
17936;BME280;9093;52.062;4.508;2022-07-29T09:16:23;102070.00;;;20.44;58.26
17936;BME280;9093;52.062;4.508;2022-07-29T09:19:19;102062.09;;;20.41;58.09
17936;BME280;9093;52.062;4.508;2022-07-29T09:22:04;102063.81;;;20.42;58.00
17936;BME280;9093;52.062;4.508;2022-07-29T09:24:46;102067.53;;;20.41;58.10
17936;BME280;9093;52.062;4.508;2022-07-29T09:27:27;102063.06;;;20.40;58.22
17936;BME280;9093;52.062;4.508;2022-07-29T09:30:10;102061.22;;;20.41;58.23
17936;BME280;9093;52.062;4.508;2022-07-29T09:32:59;102061.22;;;20.41;58.04
17936;BME280;9093;52.062;4.508;2022-07-29T09:35:41;102056.31;;;20.46;58.15
17936;BME280;9093;52.062;4.508;2022-07-29T09:38:21;102060.50;;;20.50;57.98
17936;BME280;9093;52.062;4.508;2022-07-29T09:41:03;102058.56;;;20.52;58.00
17936;BME280;9093;52.062;4.508;2022-07-29T09:43:53;102064.75;;;20.54;58.39
17936;BME280;9093;52.062;4.508;2022-07-29T09:46:34;102056.25;;;20.59;58.45
17936;BME280;9093;52.062;4.508;2022-07-29T09:49:14;102055.88;;;20.63;58.12
17936;BME280;9093;52.062;4.508;2022-07-29T09:52:07;102055.88;;;20.63;58.37
17936;BME280;9093;52.062;4.508;2022-07-29T09:54:48;102056.28;;;20.70;58.03
17936;BME280;9093;52.062;4.508;2022-07-29T09:57:28;102060.34;;;20.75;58.22
17936;BME280;9093;52.062;4.508;2022-07-29T10:00:14;102057.31;;;20.80;58.05
17936;BME280;9093;52.062;4.508;2022-07-29T10:02:59;102063.34;;;20.83;57.89
17936;BME280;9093;52.062;4.508;2022-07-29T10:05:41;102062.00;;;20.89;58.14
17936;BME280;9093;52.062;4.508;2022-07-29T10:08:25;102065.22;;;20.94;57.89
17936;BME280;9093;52.062;4.508;2022-07-29T10:11:11;102055.00;;;20.98;57.90
17936;BME280;9093;52.062;4.508;2022-07-29T10:13:52;102046.59;;;21.01;57.95
17936;BME280;9093;52.062;4.508;2022-07-29T10:16:32;102049.97;;;21.04;57.96
17936;BME280;9093;52.062;4.508;2022-07-29T10:19:13;102050.56;;;21.08;58.03
17936;BME280;9093;52.062;4.508;2022-07-29T10:21:53;102052.03;;;21.12;57.72
17936;BME280;9093;52.062;4.508;2022-07-29T10:24:35;102050.88;;;21.16;57.81
17936;BME280;9093;52.062;4.508;2022-07-29T10:27:15;102047.03;;;21.18;57.50
17936;BME280;9093;52.062;4.508;2022-07-29T10:29:55;102052.13;;;21.23;57.58
17936;BME280;9093;52.062;4.508;2022-07-29T10:44:21;102043.09;;;21.45;57.15
17936;BME280;9093;52.062;4.508;2022-07-29T10:47:03;102045.31;;;21.51;56.92
17936;BME280;9093;52.062;4.508;2022-07-29T10:50:04;102042.38;;;21.54;56.69
17936;BME280;9093;52.062;4.508;2022-07-29T10:55:38;102040.97;;;21.71;56.44
17936;BME280;9093;52.062;4.508;2022-07-29T10:58:23;102050.38;;;21.78;56.35
17936;BME280;9093;52.062;4.508;2022-07-29T11:01:30;102042.22;;;21.78;56.29
17936;BME280;9093;52.062;4.508;2022-07-29T11:04:11;102038.00;;;21.85;56.43
17936;BME280;9093;52.062;4.508;2022-07-29T11:09:44;102040.72;;;21.96;56.19
17936;BME280;9093;52.062;4.508;2022-07-29T11:15:25;102035.00;;;22.10;55.97
17936;BME280;9093;52.062;4.508;2022-07-29T11:18:06;102025.59;;;22.14;55.62
17936;BME280;9093;52.062;4.508;2022-07-29T11:20:49;102039.69;;;22.19;55.60
17936;BME280;9093;52.062;4.508;2022-07-29T11:23:34;102029.00;;;22.27;55.27
17936;BME280;9093;52.062;4.508;2022-07-29T11:26:20;102025.19;;;22.30;55.44
17936;BME280;9093;52.062;4.508;2022-07-29T11:29:31;102027.03;;;22.29;55.56
17936;BME280;9093;52.062;4.508;2022-07-29T11:32:15;102028.97;;;22.38;55.11
17936;BME280;9093;52.062;4.508;2022-07-29T11:35:14;102024.13;;;22.42;54.78
17936;BME280;9093;52.062;4.508;2022-07-29T11:38:26;102031.91;;;22.46;54.66
17936;BME280;9093;52.062;4.508;2022-07-29T11:41:20;102027.66;;;22.54;54.53
17936;BME280;9093;52.062;4.508;2022-07-29T11:44:04;102030.59;;;22.62;53.96
17936;BME280;9093;52.062;4.508;2022-07-29T11:46:49;102034.66;;;22.67;53.73
17936;BME280;9093;52.062;4.508;2022-07-29T11:49:30;102034.25;;;22.72;53.73
17936;BME280;9093;52.062;4.508;2022-07-29T11:52:10;102036.34;;;22.79;53.84
17936;BME280;9093;52.062;4.508;2022-07-29T11:54:51;102032.75;;;22.79;54.11
17936;BME280;9093;52.062;4.508;2022-07-29T11:57:33;102030.50;;;22.84;53.56
17936;BME280;9093;52.062;4.508;2022-07-29T12:00:25;102025.13;;;22.94;53.43
17936;BME280;9093;52.062;4.508;2022-07-29T12:03:08;102030.38;;;23.06;53.17
17936;BME280;9093;52.062;4.508;2022-07-29T12:05:49;102036.13;;;23.13;53.32
17936;BME280;9093;52.062;4.508;2022-07-29T12:08:29;102041.38;;;23.25;53.00
17936;BME280;9093;52.062;4.508;2022-07-29T12:11:18;102036.94;;;23.34;52.76
17936;BME280;9093;52.062;4.508;2022-07-29T12:13:58;102032.53;;;23.43;53.28
17936;BME280;9093;52.062;4.508;2022-07-29T12:16:39;102035.50;;;23.51;53.35
17936;BME280;9093;52.062;4.508;2022-07-29T12:19:19;102034.69;;;23.70;53.41
17936;BME280;9093;52.062;4.508;2022-07-29T12:21:59;102031.13;;;23.79;53.00
17936;BME280;9093;52.062;4.508;2022-07-29T12:24:44;102035.19;;;23.94;52.53
17936;BME280;9093;52.062;4.508;2022-07-29T12:27:24;102038.22;;;24.00;52.74
17936;BME280;9093;52.062;4.508;2022-07-29T12:30:07;102043.56;;;24.12;52.55
17936;BME280;9093;52.062;4.508;2022-07-29T12:32:48;102034.41;;;24.32;51.99
17936;BME280;9093;52.062;4.508;2022-07-29T12:35:28;102031.97;;;24.48;51.93
17936;BME280;9093;52.062;4.508;2022-07-29T12:38:10;102032.25;;;24.64;51.40
17936;BME280;9093;52.062;4.508;2022-07-29T12:40:53;102028.78;;;24.81;51.67
17936;BME280;9093;52.062;4.508;2022-07-29T12:43:34;102028.22;;;24.97;51.36
17936;BME280;9093;52.062;4.508;2022-07-29T12:46:14;102029.00;;;25.17;51.54
17936;BME280;9093;52.062;4.508;2022-07-29T12:48:55;102034.75;;;25.23;51.83
17936;BME280;9093;52.062;4.508;2022-07-29T12:51:37;102037.25;;;25.44;51.61
17936;BME280;9093;52.062;4.508;2022-07-29T12:54:18;102038.88;;;25.74;51.43
17936;BME280;9093;52.062;4.508;2022-07-29T12:56:59;102037.53;;;26.06;51.47
17936;BME280;9093;52.062;4.508;2022-07-29T12:59:39;102029.25;;;26.42;49.99
17936;BME280;9093;52.062;4.508;2022-07-29T13:02:21;102026.94;;;26.73;49.66
17936;BME280;9093;52.062;4.508;2022-07-29T13:05:05;102031.78;;;26.97;48.88
17936;BME280;9093;52.062;4.508;2022-07-29T13:07:46;102015.03;;;27.08;48.01
17936;BME280;9093;52.062;4.508;2022-07-29T13:10:26;102026.56;;;27.12;48.44
17936;BME280;9093;52.062;4.508;2022-07-29T13:13:14;102035.25;;;27.07;48.14
17936;BME280;9093;52.062;4.508;2022-07-29T13:16:07;102023.84;;;26.94;48.08
17936;BME280;9093;52.062;4.508;2022-07-29T13:18:47;102027.38;;;26.87;48.54
17936;BME280;9093;52.062;4.508;2022-07-29T13:21:28;102030.41;;;27.01;47.92
17936;BME280;9093;52.062;4.508;2022-07-29T13:24:08;102032.34;;;27.09;47.31
17936;BME280;9093;52.062;4.508;2022-07-29T13:26:49;102035.47;;;27.14;47.64
17936;BME280;9093;52.062;4.508;2022-07-29T13:29:29;102027.59;;;27.11;47.03
17936;BME280;9093;52.062;4.508;2022-07-29T13:32:09;102034.72;;;27.04;46.88
17936;BME280;9093;52.062;4.508;2022-07-29T13:34:50;102038.28;;;26.96;46.72
17936;BME280;9093;52.062;4.508;2022-07-29T13:37:30;102037.03;;;26.91;46.28
17936;BME280;9093;52.062;4.508;2022-07-29T13:40:12;102032.00;;;26.86;46.09
17936;BME280;9093;52.062;4.508;2022-07-29T13:42:54;102035.41;;;26.88;45.87
17936;BME280;9093;52.062;4.508;2022-07-29T13:45:34;102036.06;;;26.82;45.85
17936;BME280;9093;52.062;4.508;2022-07-29T13:48:14;102034.97;;;26.75;45.59
17936;BME280;9093;52.062;4.508;2022-07-29T13:50:54;102028.97;;;26.71;45.27
17936;BME280;9093;52.062;4.508;2022-07-29T13:53:36;102041.72;;;26.63;45.34
17936;BME280;9093;52.062;4.508;2022-07-29T13:56:16;102032.03;;;26.51;45.09
17936;BME280;9093;52.062;4.508;2022-07-29T13:58:56;102033.22;;;26.48;45.10
17936;BME280;9093;52.062;4.508;2022-07-29T14:01:37;102043.31;;;26.48;44.66
17936;BME280;9093;52.062;4.508;2022-07-29T14:04:17;102033.84;;;26.42;45.01
17936;BME280;9093;52.062;4.508;2022-07-29T14:06:58;102041.91;;;26.43;44.62
17936;BME280;9093;52.062;4.508;2022-07-29T14:09:39;102033.00;;;26.41;44.41
17936;BME280;9093;52.062;4.508;2022-07-29T14:12:19;102034.72;;;26.42;44.17
17936;BME280;9093;52.062;4.508;2022-07-29T14:14:59;102052.47;;;26.38;44.41
17936;BME280;9093;52.062;4.508;2022-07-29T14:17:40;102033.63;;;26.35;43.76
17936;BME280;9093;52.062;4.508;2022-07-29T14:20:20;102048.31;;;26.34;44.06
17936;BME280;9093;52.062;4.508;2022-07-29T14:23:00;102039.09;;;26.35;43.70
17936;BME280;9093;52.062;4.508;2022-07-29T14:25:40;102051.44;;;26.39;43.50
17936;BME280;9093;52.062;4.508;2022-07-29T14:28:21;102054.66;;;26.35;43.35
17936;BME280;9093;52.062;4.508;2022-07-29T14:31:01;102047.22;;;26.27;43.73
17936;BME280;9093;52.062;4.508;2022-07-29T14:33:42;102057.31;;;26.27;43.28
17936;BME280;9093;52.062;4.508;2022-07-29T14:36:22;102048.94;;;26.28;43.66
17936;BME280;9093;52.062;4.508;2022-07-29T14:39:03;102045.50;;;26.26;43.52
17936;BME280;9093;52.062;4.508;2022-07-29T14:41:44;102060.44;;;26.32;43.43
17936;BME280;9093;52.062;4.508;2022-07-29T14:44:24;102048.72;;;26.39;43.46
17936;BME280;9093;52.062;4.508;2022-07-29T14:47:09;102052.53;;;26.47;43.18
17936;BME280;9093;52.062;4.508;2022-07-29T14:49:49;102055.44;;;26.45;43.03